ADDS METAR Data INFO
IDs: Format: Raw Decoded Include TAF

Data at: 1747 UTC 25 Feb 2018

METAR for:KMWO (Middletown/Hook Fld, OH, US)
Text:KMWO 251735Z AUTO 25010KT 10SM CLR 08/01 A3005 RMK AO2 T00790009
Temperature: 7.9°C ( 46°F)
Dewpoint: 0.9°C ( 34°F) [RH = 61%]
Pressure (altimeter):30.05 inches Hg (1017.7 mb)
Winds:from the WSW (250 degrees) at 12 MPH (10 knots; 5.1 m/s)
Visibility:10 or more sm (16+ km)
Ceiling:at least 12,000 feet AGL
Clouds:sky clear below 12,000 feet AGL
QC Flag:automated observation with no human augmentation